Time;durP1;ratioP1;P1;durP2;ratioP2;P2;SDS_P1;SDS_P2;PMS_P1;PMS_P2;Temp;Humidity;BMP_temperature;BMP_pressure;BME280_temperature;BME280_humidity;BME280_pressure;Samples;Min_cycle;Max_cycle;Signal;HPM_P1;HPM_P2
2022/02/28 00:00:28;;;;;;;6.80;3.55;;;4.50;99.90;;;;;;5029400;28;20061;-35
2022/02/28 00:02:55;;;;;;;8.23;3.20;;;4.50;99.90;;;;;;5032991;28;20068;-35
2022/02/28 00:05:21;;;;;;;6.20;3.42;;;4.40;99.90;;;;;;5033722;28;20116;-34
2022/02/28 00:07:49;;;;;;;10.15;2.72;;;4.30;99.90;;;;;;5032313;28;20104;-31
2022/02/28 00:10:16;;;;;;;5.80;2.85;;;4.30;99.90;;;;;;5031305;28;20022;-32
2022/02/28 00:12:42;;;;;;;8.55;3.13;;;4.20;99.90;;;;;;5028045;28;20026;-33
2022/02/28 00:15:09;;;;;;;7.50;3.42;;;4.20;99.90;;;;;;5026241;28;20496;-33
2022/02/28 00:17:34;;;;;;;5.82;3.10;;;4.30;99.90;;;;;;5040475;28;20083;-34
2022/02/28 00:20:02;;;;;;;10.85;3.35;;;4.30;99.90;;;;;;5038048;28;20532;-32
2022/02/28 00:22:27;;;;;;;5.63;2.80;;;4.20;99.90;;;;;;5033346;28;20524;-37
2022/02/28 00:24:53;;;;;;;4.90;3.15;;;4.20;99.90;;;;;;5029233;28;20022;-34
2022/02/28 00:27:18;;;;;;;3.83;2.80;;;4.20;99.90;;;;;;5025052;28;20481;-39
2022/02/28 00:29:44;;;;;;;10.13;3.47;;;4.20;99.90;;;;;;5028578;28;20037;-36
2022/02/28 00:32:10;;;;;;;4.35;2.95;;;4.20;99.90;;;;;;5024775;28;20029;-31
2022/02/28 00:34:35;;;;;;;6.05;2.85;;;4.20;99.90;;;;;;5030241;28;20021;-31
2022/02/28 00:37:01;;;;;;;7.72;3.20;;;4.20;99.90;;;;;;5030220;28;20088;-33
2022/02/28 00:39:29;;;;;;;7.30;3.35;;;4.30;99.90;;;;;;5030965;28;20029;-36
2022/02/28 00:41:55;;;;;;;8.88;3.67;;;4.20;99.90;;;;;;5030732;28;20381;-35
2022/02/28 00:44:20;;;;;;;8.77;4.43;;;4.20;99.90;;;;;;5024378;28;20033;-34
2022/02/28 00:46:46;;;;;;;7.05;3.03;;;4.10;99.90;;;;;;5030887;28;20030;-35
2022/02/28 00:49:12;;;;;;;9.70;3.00;;;4.10;99.90;;;;;;5032783;28;20478;-31
2022/02/28 00:51:37;;;;;;;9.85;3.47;;;4.10;99.90;;;;;;5031546;28;20052;-34
2022/02/28 00:56:49;;;;;;;6.50;2.95;;;4.00;99.90;;;;;;5033529;28;20040;-36
2022/02/28 00:59:14;;;;;;;7.50;3.20;;;4.00;99.90;;;;;;5036006;28;20053;-31
2022/02/28 01:01:40;;;;;;;8.75;2.83;;;4.00;99.90;;;;;;5042445;28;20025;-33
2022/02/28 01:04:06;;;;;;;7.32;3.40;;;4.00;99.90;;;;;;5030912;28;20022;-30
2022/02/28 01:06:33;;;;;;;6.93;2.83;;;4.00;99.90;;;;;;5021412;28;20041;-35
2022/02/28 01:08:59;;;;;;;4.70;2.97;;;4.00;99.90;;;;;;5030879;28;20036;-34
2022/02/28 01:11:25;;;;;;;8.68;2.58;;;3.90;99.90;;;;;;5028300;28;20037;-33
2022/02/28 01:13:50;;;;;;;8.27;2.50;;;3.80;99.90;;;;;;5020655;28;20108;-33
2022/02/28 01:16:16;;;;;;;7.85;3.20;;;3.80;99.90;;;;;;5017695;28;20457;-34
2022/02/28 01:18:42;;;;;;;8.00;2.97;;;3.80;99.90;;;;;;5027994;28;20017;-31
2022/02/28 01:21:08;;;;;;;9.55;3.13;;;3.80;99.90;;;;;;5046072;28;20053;-49
2022/02/28 01:23:33;;;;;;;7.88;3.00;;;3.80;99.90;;;;;;5033269;28;20401;-33
2022/02/28 01:25:59;;;;;;;11.88;3.20;;;3.80;99.90;;;;;;5047331;28;20026;-33
2022/02/28 01:28:24;;;;;;;6.55;2.92;;;3.80;99.90;;;;;;5026800;28;20037;-32
2022/02/28 01:30:50;;;;;;;9.82;2.83;;;3.80;99.90;;;;;;5030570;28;20029;-32
2022/02/28 01:33:16;;;;;;;5.25;2.85;;;3.80;99.90;;;;;;5049908;28;20021;-40
2022/02/28 01:35:41;;;;;;;8.60;3.13;;;3.90;99.90;;;;;;5033291;28;20059;-36
2022/02/28 01:38:07;;;;;;;5.82;2.95;;;3.90;99.90;;;;;;5029646;28;20401;-34
2022/02/28 01:40:52;;;;;;;7.82;2.95;;;3.90;99.90;;;;;;5025884;28;20020;-32
2022/02/28 01:43:18;;;;;;;4.35;2.78;;;3.90;99.90;;;;;;5030380;28;20028;-33
2022/02/28 01:45:43;;;;;;;4.72;2.92;;;3.80;99.90;;;;;;5024965;28;20553;-33
2022/02/28 01:48:09;;;;;;;6.40;2.72;;;3.80;99.90;;;;;;5023177;28;20029;-31
2022/02/28 01:50:35;;;;;;;6.72;2.72;;;3.60;99.90;;;;;;5039398;28;20064;-30
2022/02/28 01:53:04;;;;;;;4.82;2.45;;;3.60;99.90;;;;;;5020593;28;20479;-32
2022/02/28 01:55:30;;;;;;;6.55;2.63;;;3.50;99.90;;;;;;5025728;28;20470;-33
2022/02/28 01:57:56;;;;;;;5.00;2.78;;;3.60;99.90;;;;;;5032680;28;20031;-33
2022/02/28 02:00:26;;;;;;;4.95;2.90;;;3.60;99.90;;;;;;5034792;28;20128;-33
2022/02/28 02:02:52;;;;;;;8.95;3.20;;;3.60;99.90;;;;;;5031187;28;20025;-33
2022/02/28 02:05:18;;;;;;;6.28;3.10;;;3.60;99.90;;;;;;5032685;28;20139;-34
2022/02/28 02:07:44;;;;;;;4.47;2.25;;;3.60;99.90;;;;;;5041939;28;20022;-30
2022/02/28 02:10:11;;;;;;;8.18;2.30;;;3.60;99.90;;;;;;5025285;28;20420;-34
2022/02/28 02:12:38;;;;;;;5.73;2.43;;;3.60;99.90;;;;;;5036391;28;20037;-34
2022/02/28 02:15:07;;;;;;;7.28;2.58;;;3.60;99.90;;;;;;5030800;28;20060;-34
2022/02/28 02:17:32;;;;;;;7.32;2.60;;;3.50;99.90;;;;;;5032255;28;20022;-32
2022/02/28 02:20:02;;;;;;;7.07;2.90;;;3.50;99.90;;;;;;5044409;28;20029;-34
2022/02/28 02:22:28;;;;;;;7.50;2.53;;;3.50;99.90;;;;;;5030956;28;20034;-31
2022/02/28 02:24:53;;;;;;;5.65;2.30;;;3.50;99.90;;;;;;5048034;28;20158;-35
2022/02/28 02:27:19;;;;;;;8.13;2.70;;;3.50;99.90;;;;;;5050029;28;20107;-34
2022/02/28 02:29:45;;;;;;;12.38;2.80;;;3.50;99.90;;;;;;5031109;28;20034;-34
2022/02/28 02:32:13;;;;;;;5.10;2.55;;;3.60;99.90;;;;;;5014570;28;20100;-32
2022/02/28 02:34:39;;;;;;;6.97;2.60;;;3.60;99.90;;;;;;5025321;28;20044;-35
2022/02/28 02:37:04;;;;;;;8.85;2.78;;;3.50;99.90;;;;;;5032036;28;20025;-37
2022/02/28 02:39:30;;;;;;;3.95;2.60;;;3.50;99.90;;;;;;5027716;28;20021;-38
2022/02/28 02:41:55;;;;;;;10.02;3.35;;;3.60;99.90;;;;;;5026538;28;20046;-30
2022/02/28 02:44:21;;;;;;;8.23;2.53;;;3.50;99.90;;;;;;5015361;28;20470;-30
2022/02/28 02:46:48;;;;;;;6.45;2.65;;;3.50;99.90;;;;;;5018866;28;20060;-36
2022/02/28 02:49:14;;;;;;;8.37;2.90;;;3.40;99.90;;;;;;5031839;28;20049;-34
2022/02/28 02:51:41;;;;;;;4.32;2.88;;;3.40;99.90;;;;;;5027515;28;20273;-47
2022/02/28 02:54:08;;;;;;;7.18;2.67;;;3.40;99.90;;;;;;5015436;28;20032;-32
2022/02/28 02:56:35;;;;;;;6.57;2.58;;;3.30;99.90;;;;;;5029331;28;20033;-38
2022/02/28 02:59:00;;;;;;;5.78;3.22;;;3.30;99.90;;;;;;5024078;28;20045;-34
2022/02/28 03:01:26;;;;;;;4.18;2.55;;;3.30;99.90;;;;;;5032625;28;20519;-33
2022/02/28 03:03:53;;;;;;;7.38;2.75;;;3.30;99.90;;;;;;5020873;28;20545;-34
2022/02/28 03:06:19;;;;;;;6.38;2.88;;;3.30;99.90;;;;;;5014980;28;20022;-34
2022/02/28 03:08:44;;;;;;;4.05;2.50;;;3.20;99.90;;;;;;5018740;28;20033;-31
2022/02/28 03:11:10;;;;;;;7.82;3.00;;;3.20;99.90;;;;;;5020191;28;20022;-31
2022/02/28 03:13:35;;;;;;;7.18;2.92;;;3.20;99.90;;;;;;5016649;28;20452;-33
2022/02/28 03:16:01;;;;;;;9.98;2.75;;;3.20;99.90;;;;;;5031863;28;20359;-35
2022/02/28 03:18:27;;;;;;;11.57;3.30;;;3.20;99.90;;;;;;5033320;28;20064;-34
2022/02/28 03:20:52;;;;;;;7.40;2.95;;;3.20;99.90;;;;;;5035579;28;20033;-33
2022/02/28 03:23:18;;;;;;;3.90;2.63;;;3.20;99.90;;;;;;5035425;28;20020;-33
2022/02/28 03:25:44;;;;;;;8.80;2.92;;;3.20;99.90;;;;;;5033614;28;20032;-37
2022/02/28 03:28:09;;;;;;;6.97;3.20;;;3.10;99.90;;;;;;5032088;28;20037;-34
2022/02/28 03:30:35;;;;;;;8.65;2.88;;;3.10;99.90;;;;;;5043618;28;20032;-31
2022/02/28 03:33:01;;;;;;;5.85;2.90;;;3.00;99.90;;;;;;5034944;28;20568;-38
2022/02/28 03:35:26;;;;;;;13.38;2.80;;;3.00;99.90;;;;;;5029084;28;20022;-33
2022/02/28 03:37:52;;;;;;;4.40;2.58;;;3.00;99.90;;;;;;5030598;28;20029;-32
2022/02/28 03:40:17;;;;;;;5.13;2.85;;;3.00;99.90;;;;;;5053441;28;20075;-32
2022/02/28 03:42:44;;;;;;;3.83;2.78;;;3.00;99.90;;;;;;5033866;28;20026;-33
2022/02/28 03:45:09;;;;;;;4.78;2.97;;;3.00;99.90;;;;;;5034689;28;20446;-32
2022/02/28 03:47:35;;;;;;;2.53;2.33;;;3.00;99.90;;;;;;5036813;28;20071;-31
2022/02/28 03:50:01;;;;;;;5.55;3.10;;;2.90;99.90;;;;;;5039304;28;20025;-34
2022/02/28 03:52:26;;;;;;;6.30;3.13;;;2.80;99.90;;;;;;5038872;28;20041;-34
2022/02/28 03:54:52;;;;;;;6.07;2.63;;;2.80;99.90;;;;;;5048785;28;20037;-31
2022/02/28 03:57:17;;;;;;;5.70;2.72;;;2.80;99.90;;;;;;5033174;28;20068;-33
2022/02/28 03:59:43;;;;;;;4.63;2.50;;;2.90;99.90;;;;;;5045228;28;20056;-37
2022/02/28 04:02:09;;;;;;;6.25;2.42;;;2.90;99.90;;;;;;5044464;28;20092;-32
2022/02/28 04:04:34;;;;;;;10.07;2.65;;;2.80;99.90;;;;;;5053261;28;20028;-32
2022/02/28 04:07:00;;;;;;;5.07;3.17;;;2.80;99.90;;;;;;5045850;28;20482;-36
2022/02/28 04:09:44;;;;;;;6.78;2.92;;;2.80;99.90;;;;;;5026717;28;20030;-31
2022/02/28 04:12:10;;;;;;;4.95;2.20;;;2.80;99.90;;;;;;5022517;28;20392;-32
2022/02/28 04:14:37;;;;;;;8.85;3.25;;;2.80;99.90;;;;;;5036436;28;20079;-36
2022/02/28 04:17:03;;;;;;;4.38;2.72;;;2.80;99.90;;;;;;5033754;28;20062;-33
2022/02/28 04:19:29;;;;;;;6.20;2.63;;;2.80;99.90;;;;;;5049385;28;20040;-33
2022/02/28 04:21:54;;;;;;;4.63;2.42;;;2.70;99.90;;;;;;5036447;28;20030;-30
2022/02/28 04:24:20;;;;;;;3.95;2.22;;;2.60;99.90;;;;;;5045443;28;20104;-33
2022/02/28 04:27:04;;;;;;;7.65;3.53;;;2.60;99.90;;;;;;5045150;28;20025;-36
2022/02/28 04:29:30;;;;;;;5.68;2.95;;;2.50;99.90;;;;;;5019890;28;20040;-31
2022/02/28 04:31:56;;;;;;;11.05;3.47;;;2.50;99.90;;;;;;5033179;28;20033;-31
2022/02/28 04:34:21;;;;;;;5.82;2.75;;;2.60;99.90;;;;;;5031034;28;20035;-33
2022/02/28 04:36:47;;;;;;;9.82;3.72;;;2.60;99.90;;;;;;5039678;28;20094;-36
2022/02/28 04:39:13;;;;;;;4.63;2.65;;;2.60;99.90;;;;;;5052618;28;20122;-55
2022/02/28 04:41:38;;;;;;;8.80;3.13;;;2.60;99.90;;;;;;5052855;28;20118;-32
2022/02/28 04:44:04;;;;;;;6.20;2.97;;;2.60;99.90;;;;;;5036519;28;20041;-36
2022/02/28 04:46:30;;;;;;;12.15;2.42;;;2.60;99.90;;;;;;5031951;28;20025;-33
2022/02/28 04:48:56;;;;;;;6.03;2.63;;;2.60;99.90;;;;;;5032108;28;20071;-37
2022/02/28 04:51:21;;;;;;;11.02;3.15;;;2.50;99.90;;;;;;5032764;28;20021;-31
2022/02/28 04:53:47;;;;;;;5.00;2.80;;;2.50;99.90;;;;;;5026718;28;20477;-32
2022/02/28 04:56:13;;;;;;;6.68;2.65;;;2.50;99.90;;;;;;5032624;28;20026;-38
2022/02/28 04:58:38;;;;;;;9.10;2.75;;;2.50;99.90;;;;;;5039882;28;20021;-31
2022/02/28 05:01:04;;;;;;;10.13;3.45;;;2.50;99.90;;;;;;5049137;28;20029;-35
2022/02/28 05:03:30;;;;;;;6.18;2.20;;;2.40;99.90;;;;;;5039129;28;20074;-33
2022/02/28 05:05:55;;;;;;;11.25;2.83;;;2.40;99.90;;;;;;5045598;28;20083;-35
2022/02/28 05:08:21;;;;;;;7.80;4.07;;;2.40;99.90;;;;;;5031820;28;20029;-33
2022/02/28 05:10:47;;;;;;;5.05;2.83;;;2.40;99.90;;;;;;5048984;28;20036;-33
2022/02/28 05:13:12;;;;;;;6.35;3.17;;;2.40;99.90;;;;;;5029440;28;20057;-32
2022/02/28 05:15:38;;;;;;;6.78;2.90;;;2.40;99.90;;;;;;5032657;28;20104;-30
2022/02/28 05:18:04;;;;;;;5.50;2.78;;;2.30;99.90;;;;;;5042386;28;20029;-35
2022/02/28 05:20:29;;;;;;;3.53;2.72;;;2.30;99.90;;;;;;5050856;28;20060;-34
2022/02/28 05:22:55;;;;;;;8.05;3.08;;;2.30;99.90;;;;;;5032459;28;20105;-44
2022/02/28 05:25:21;;;;;;;8.70;2.58;;;2.30;99.90;;;;;;5037056;28;20021;-34
2022/02/28 05:27:48;;;;;;;10.35;3.08;;;2.30;99.90;;;;;;5030006;28;20029;-35
2022/02/28 05:30:14;;;;;;;3.58;2.63;;;2.20;99.90;;;;;;5038394;28;20090;-34
2022/02/28 05:32:41;;;;;;;6.40;3.17;;;2.20;99.90;;;;;;5029031;28;20060;-36
2022/02/28 05:35:11;;;;;;;5.07;3.10;;;2.20;99.90;;;;;;5030051;28;20393;-33
2022/02/28 05:37:37;;;;;;;5.32;3.00;;;2.20;99.90;;;;;;5043406;28;20535;-37
2022/02/28 05:40:03;;;;;;;10.45;2.65;;;2.20;99.90;;;;;;5032352;28;20072;-32
2022/02/28 05:42:29;;;;;;;6.75;2.75;;;2.20;99.90;;;;;;5041708;28;20017;-33
2022/02/28 05:44:54;;;;;;;7.13;3.13;;;2.20;99.90;;;;;;5028140;28;20041;-35
2022/02/28 05:47:20;;;;;;;4.18;2.85;;;2.10;99.90;;;;;;5039265;28;20034;-34
2022/02/28 05:49:46;;;;;;;6.70;2.38;;;2.10;99.90;;;;;;5029866;28;20052;-30
2022/02/28 05:52:11;;;;;;;9.93;3.08;;;2.10;99.90;;;;;;5030894;28;20452;-34
2022/02/28 05:54:37;;;;;;;3.50;2.72;;;2.00;99.90;;;;;;5047993;28;20033;-35
2022/02/28 05:57:04;;;;;;;8.98;3.00;;;2.10;99.90;;;;;;5041437;28;20068;-32
2022/02/28 05:59:30;;;;;;;9.77;3.33;;;2.10;99.90;;;;;;5035749;28;20053;-33
2022/02/28 06:01:56;;;;;;;8.88;2.97;;;2.00;99.90;;;;;;5035990;28;20041;-34
2022/02/28 06:04:21;;;;;;;4.32;2.75;;;2.10;99.90;;;;;;5046850;28;20045;-33
2022/02/28 06:06:47;;;;;;;8.35;2.90;;;2.00;99.90;;;;;;5036179;28;20024;-31
2022/02/28 06:09:12;;;;;;;9.65;3.05;;;2.00;99.90;;;;;;5054005;28;20028;-33
2022/02/28 06:11:38;;;;;;;6.25;3.38;;;1.90;99.90;;;;;;5041583;28;20112;-34
2022/02/28 06:14:03;;;;;;;7.25;2.80;;;1.90;99.90;;;;;;5028629;28;20040;-30
2022/02/28 06:16:29;;;;;;;11.30;3.15;;;1.90;99.90;;;;;;5038649;28;20084;-32
2022/02/28 06:18:55;;;;;;;10.13;3.13;;;1.90;99.90;;;;;;5047142;28;20021;-34
2022/02/28 06:21:20;;;;;;;5.30;3.33;;;1.90;99.90;;;;;;5038253;28;20067;-34
2022/02/28 06:23:46;;;;;;;8.30;2.78;;;2.00;99.90;;;;;;5035437;28;20029;-34
2022/02/28 06:26:12;;;;;;;4.15;2.95;;;2.00;99.90;;;;;;5036487;28;20018;-37
2022/02/28 06:28:38;;;;;;;5.22;2.38;;;1.90;99.90;;;;;;5054735;28;20025;-38
2022/02/28 06:31:04;;;;;;;5.30;2.78;;;1.90;99.90;;;;;;5043006;28;20140;-33
2022/02/28 06:33:30;;;;;;;4.70;2.80;;;1.90;99.90;;;;;;5054707;28;20074;-35
2022/02/28 06:35:56;;;;;;;9.85;4.18;;;1.90;99.90;;;;;;5038308;28;20092;-34
2022/02/28 06:38:22;;;;;;;5.90;3.45;;;1.90;99.90;;;;;;5043108;28;20429;-32
2022/02/28 06:40:49;;;;;;;13.60;3.50;;;1.90;99.90;;;;;;5044267;28;20901;-31
2022/02/28 06:43:16;;;;;;;5.75;3.10;;;1.90;99.90;;;;;;5053522;28;20496;-34
2022/02/28 06:45:42;;;;;;;5.85;3.10;;;1.90;99.90;;;;;;5015366;28;20036;-38
2022/02/28 06:48:08;;;;;;;9.20;3.40;;;1.90;99.90;;;;;;5037790;28;20580;-50
2022/02/28 06:50:34;;;;;;;7.53;3.53;;;1.90;99.90;;;;;;5041946;28;20072;-37
2022/02/28 06:53:00;;;;;;;8.27;3.17;;;1.90;99.90;;;;;;5035741;28;20479;-45
2022/02/28 06:55:26;;;;;;;5.88;3.15;;;1.90;99.90;;;;;;5034965;28;20521;-32
2022/02/28 06:57:52;;;;;;;7.80;3.78;;;2.00;99.90;;;;;;5035896;28;20071;-31
2022/02/28 07:00:17;;;;;;;11.10;3.20;;;2.00;99.90;;;;;;5039331;28;20083;-36
2022/02/28 07:02:43;;;;;;;4.57;3.33;;;2.00;99.90;;;;;;5049345;28;20033;-37
2022/02/28 07:05:09;;;;;;;4.80;2.88;;;2.10;99.90;;;;;;5042244;28;20053;-33
2022/02/28 07:07:36;;;;;;;9.75;3.83;;;2.10;99.90;;;;;;5046196;28;20079;-31
2022/02/28 07:10:02;;;;;;;9.95;3.70;;;2.20;99.90;;;;;;5047042;28;20064;-33
2022/02/28 07:12:29;;;;;;;7.03;3.25;;;2.10;99.90;;;;;;5040284;28;20390;-32
2022/02/28 07:14:55;;;;;;;5.55;3.13;;;2.20;99.90;;;;;;5038474;28;20028;-35
2022/02/28 07:17:20;;;;;;;5.00;2.90;;;2.20;99.90;;;;;;5038537;28;20030;-32
2022/02/28 07:19:46;;;;;;;12.25;3.78;;;2.30;99.90;;;;;;5046521;28;20041;-34
2022/02/28 07:22:12;;;;;;;7.93;3.45;;;2.30;99.90;;;;;;5048691;28;20049;-34
2022/02/28 07:24:37;;;;;;;9.63;3.03;;;2.30;99.90;;;;;;5045977;28;20103;-34
2022/02/28 07:27:03;;;;;;;8.68;2.80;;;2.40;99.90;;;;;;5037026;28;20025;-32
2022/02/28 07:29:29;;;;;;;13.07;3.95;;;2.50;99.90;;;;;;5022243;28;20033;-36
2022/02/28 07:31:55;;;;;;;8.50;2.88;;;2.60;99.90;;;;;;5027658;28;20033;-31
2022/02/28 07:34:20;;;;;;;7.47;3.70;;;2.70;99.90;;;;;;5023683;28;20045;-31
2022/02/28 07:36:46;;;;;;;8.48;3.65;;;2.70;99.90;;;;;;5032625;28;20401;-33
2022/02/28 07:39:12;;;;;;;4.30;2.92;;;2.70;99.90;;;;;;5025887;28;20044;-32
2022/02/28 07:41:38;;;;;;;6.10;3.00;;;2.80;99.90;;;;;;5033664;28;20108;-35
2022/02/28 07:44:05;;;;;;;8.80;4.32;;;2.80;99.90;;;;;;5021594;28;20403;-47
2022/02/28 07:46:31;;;;;;;11.70;4.63;;;2.90;99.90;;;;;;5030120;28;20037;-35
2022/02/28 07:48:56;;;;;;;7.28;3.38;;;2.90;99.90;;;;;;5024696;28;20029;-30
2022/02/28 07:51:22;;;;;;;6.90;3.30;;;3.00;99.90;;;;;;5015312;28;21957;-35
2022/02/28 07:53:48;;;;;;;8.10;3.45;;;3.10;99.90;;;;;;5025768;28;20034;-36
2022/02/28 07:56:13;;;;;;;14.07;4.53;;;3.20;99.90;;;;;;5026193;28;20025;-28
2022/02/28 07:58:39;;;;;;;5.05;3.35;;;3.20;99.90;;;;;;5032266;28;20040;-32
2022/02/28 08:01:04;;;;;;;7.07;3.53;;;3.20;99.90;;;;;;5031830;28;20025;-30
2022/02/28 08:03:30;;;;;;;6.80;3.25;;;3.20;99.90;;;;;;5013086;28;20034;-30
2022/02/28 08:05:56;;;;;;;9.38;3.97;;;3.30;99.90;;;;;;5026428;28;20091;-32
2022/02/28 08:08:21;;;;;;;10.13;3.47;;;3.30;99.90;;;;;;5016280;28;20040;-31
2022/02/28 08:10:47;;;;;;;18.90;4.40;;;3.40;99.90;;;;;;5010228;28;20021;-34
2022/02/28 08:13:12;;;;;;;7.22;3.83;;;3.50;99.90;;;;;;5017418;28;20028;-32
2022/02/28 08:15:41;;;;;;;12.27;4.57;;;3.70;99.90;;;;;;5033691;28;20540;-31
2022/02/28 08:18:07;;;;;;;10.98;3.60;;;3.80;99.90;;;;;;5018606;28;20026;-31
2022/02/28 08:20:34;;;;;;;7.28;2.95;;;3.90;99.90;;;;;;5020364;28;20034;-35
2022/02/28 08:23:04;;;;;;;8.45;4.00;;;4.00;99.90;;;;;;5031981;28;20596;-31
2022/02/28 08:25:30;;;;;;;7.68;4.00;;;4.10;99.90;;;;;;5018294;28;20060;-31
2022/02/28 08:27:56;;;;;;;14.75;4.25;;;4.20;99.90;;;;;;5018592;28;20033;-33
2022/02/28 08:30:22;;;;;;;8.63;3.88;;;4.20;99.90;;;;;;5030087;28;20060;-35
2022/02/28 08:32:48;;;;;;;9.05;3.60;;;4.30;99.90;;;;;;5031920;28;20057;-35
2022/02/28 08:35:17;;;;;;;10.18;3.72;;;4.40;99.90;;;;;;5029010;28;20096;-30
2022/02/28 08:37:43;;;;;;;9.68;4.20;;;4.60;99.90;;;;;;5038308;28;20238;-30
2022/02/28 08:40:09;;;;;;;6.28;3.63;;;4.70;99.90;;;;;;5014953;28;20060;-38
2022/02/28 08:42:35;;;;;;;7.22;4.22;;;4.80;99.90;;;;;;5032515;28;20072;-37
2022/02/28 08:45:02;;;;;;;11.00;3.70;;;4.80;99.90;;;;;;5040767;28;21653;-34
2022/02/28 08:47:27;;;;;;;6.72;4.00;;;4.90;99.90;;;;;;5032359;28;20030;-35
2022/02/28 08:49:53;;;;;;;10.68;3.58;;;5.00;99.90;;;;;;5029227;28;20434;-31
2022/02/28 08:52:19;;;;;;;8.30;3.70;;;5.10;99.90;;;;;;5032987;28;20024;-33
2022/02/28 08:54:44;;;;;;;5.32;3.13;;;5.20;99.90;;;;;;5030027;28;20029;-34
2022/02/28 08:57:10;;;;;;;12.40;3.78;;;5.40;99.90;;;;;;5027870;28;20398;-30
2022/02/28 08:59:35;;;;;;;5.80;3.30;;;5.50;99.90;;;;;;5020225;28;20057;-35
2022/02/28 09:02:03;;;;;;;8.98;4.03;;;5.60;99.90;;;;;;5032369;28;20385;-31
2022/02/28 09:04:30;;;;;;;7.75;3.53;;;5.70;99.90;;;;;;5038068;28;20025;-33
2022/02/28 09:06:57;;;;;;;5.10;3.30;;;5.80;99.90;;;;;;5052255;28;20025;-31
2022/02/28 09:09:24;;;;;;;11.65;3.25;;;5.90;99.90;;;;;;5042215;28;20029;-46
2022/02/28 09:11:50;;;;;;;13.45;3.50;;;5.90;99.90;;;;;;5027878;28;20437;-31
2022/02/28 09:14:15;;;;;;;5.97;3.42;;;6.00;99.90;;;;;;5026133;28;20024;-36
2022/02/28 09:16:41;;;;;;;5.50;3.10;;;6.10;99.90;;;;;;5023477;28;20026;-32
2022/02/28 09:19:07;;;;;;;11.48;3.08;;;6.10;99.90;;;;;;5032488;28;20473;-31
2022/02/28 09:21:32;;;;;;;4.43;3.30;;;6.20;99.90;;;;;;5030890;28;20026;-32
2022/02/28 09:23:58;;;;;;;9.32;3.97;;;6.30;99.90;;;;;;5017905;28;20022;-31
2022/02/28 09:26:24;;;;;;;6.55;3.40;;;6.30;99.90;;;;;;5023853;28;20038;-29
2022/02/28 09:28:50;;;;;;;5.85;2.90;;;6.50;99.90;;;;;;5027356;28;20052;-34
2022/02/28 09:31:16;;;;;;;11.65;3.72;;;6.50;99.90;;;;;;5027761;28;20513;-33
2022/02/28 09:33:41;;;;;;;9.10;3.40;;;6.70;99.90;;;;;;5036073;28;20035;-32
2022/02/28 09:36:07;;;;;;;7.88;3.70;;;6.70;99.90;;;;;;5036002;28;20029;-35
2022/02/28 09:38:34;;;;;;;8.70;3.58;;;6.80;99.90;;;;;;5030569;28;20104;-37
2022/02/28 09:41:01;;;;;;;7.80;3.22;;;6.90;99.90;;;;;;5034388;28;20076;-47
2022/02/28 09:43:27;;;;;;;6.10;2.80;;;6.90;99.90;;;;;;5035525;28;20026;-32
2022/02/28 09:45:53;;;;;;;6.60;3.92;;;7.00;99.90;;;;;;5025984;28;20048;-34
2022/02/28 09:48:19;;;;;;;7.63;3.47;;;7.10;99.90;;;;;;5033139;28;20014;-34
2022/02/28 09:50:45;;;;;;;6.65;3.75;;;7.20;99.90;;;;;;5034116;28;20385;-36
2022/02/28 09:53:10;;;;;;;4.55;3.00;;;7.30;99.90;;;;;;5035425;28;20017;-48
2022/02/28 09:55:36;;;;;;;6.13;3.60;;;7.30;99.90;;;;;;5030382;28;20017;-35
2022/02/28 09:58:02;;;;;;;7.68;3.65;;;7.30;99.90;;;;;;5037920;28;20032;-31
2022/02/28 10:00:29;;;;;;;9.05;4.05;;;7.30;99.90;;;;;;5018911;28;20058;-32
2022/02/28 10:02:56;;;;;;;7.50;3.80;;;7.30;99.90;;;;;;5043795;28;20025;-34
2022/02/28 10:05:25;;;;;;;5.65;3.13;;;7.40;99.90;;;;;;5033172;28;20411;-32
2022/02/28 10:07:57;;;;;;;5.13;3.47;;;7.50;99.90;;;;;;5035232;28;20542;-30
2022/02/28 10:10:25;;;;;;;9.30;3.67;;;7.60;99.90;;;;;;5034870;28;20028;-31
2022/02/28 10:12:52;;;;;;;6.60;3.72;;;7.70;99.90;;;;;;5034067;28;20029;-32
2022/02/28 10:15:22;;;;;;;6.82;3.92;;;7.80;99.90;;;;;;5032686;28;20033;-33
2022/02/28 10:17:50;;;;;;;6.80;3.38;;;7.80;99.90;;;;;;5027676;28;20052;-37
2022/02/28 10:20:22;;;;;;;6.50;3.20;;;7.90;99.90;;;;;;5025564;28;20010;-33
2022/02/28 10:22:54;;;;;;;5.85;3.35;;;8.00;99.90;;;;;;5033626;28;20444;-31
2022/02/28 10:25:27;;;;;;;9.15;3.22;;;8.10;99.90;;;;;;5033953;28;20075;-32
2022/02/28 10:28:09;;;;;;;6.30;3.67;;;8.10;99.90;;;;;;5035553;28;20082;-35
2022/02/28 10:30:35;;;;;;;4.57;3.03;;;8.20;99.90;;;;;;5028946;28;20033;-32
2022/02/28 10:33:12;;;;;;;4.72;2.78;;;8.30;99.90;;;;;;5035560;28;20014;-33
2022/02/28 10:36:00;;;;;;;5.80;3.42;;;8.40;99.90;;;;;;5028196;28;20033;-37
2022/02/28 10:38:32;;;;;;;4.18;3.20;;;8.50;99.90;;;;;;5032080;28;20033;-44
2022/02/28 10:41:01;;;;;;;6.93;3.90;;;8.50;99.90;;;;;;5031064;28;20052;-37
2022/02/28 10:43:29;;;;;;;7.78;3.10;;;8.60;99.90;;;;;;5043941;28;20017;-31
2022/02/28 10:45:55;;;;;;;;;;;8.70;99.90;;;;;;5030862;28;20107;-35
2022/02/28 10:48:22;;;;;;;8.40;3.22;;;8.70;99.90;;;;;;5053772;28;19912;-35
2022/02/28 10:50:50;;;;;;;5.43;3.30;;;8.80;99.90;;;;;;5038649;28;20053;-33
2022/02/28 10:53:21;;;;;;;7.43;3.53;;;8.80;99.90;;;;;;5034451;28;20033;-35
2022/02/28 10:55:49;;;;;;;4.78;3.53;;;8.90;99.90;;;;;;5029861;28;20025;-31
2022/02/28 10:58:21;;;;;;;7.07;3.58;;;9.00;99.40;;;;;;5032219;28;20033;-32
2022/02/28 11:00:57;;;;;;;5.85;3.17;;;9.10;99.60;;;;;;5034268;28;20498;-31
2022/02/28 11:03:27;;;;;;;14.07;3.88;;;9.10;99.90;;;;;;5030226;28;20492;-30
2022/02/28 11:05:55;;;;;;;5.38;3.45;;;9.10;99.80;;;;;;5034708;28;20466;-34
2022/02/28 11:08:22;;;;;;;9.88;4.07;;;9.20;99.70;;;;;;5029732;28;20029;-34
2022/02/28 11:10:50;;;;;;;4.70;3.35;;;9.20;99.80;;;;;;5032854;28;20401;-32
2022/02/28 11:13:16;;;;;;;8.00;3.92;;;9.30;99.90;;;;;;5028901;28;20030;-32
2022/02/28 11:15:43;;;;;;;7.65;4.35;;;9.40;99.80;;;;;;5034370;28;20308;-36
2022/02/28 11:18:12;;;;;;;9.55;4.38;;;9.60;99.40;;;;;;5034699;28;20500;-34
2022/02/28 11:20:39;;;;;;;8.25;4.28;;;9.60;99.20;;;;;;5025890;28;20474;-34
2022/02/28 11:23:05;;;;;;;6.28;3.38;;;9.60;99.60;;;;;;5031379;28;20481;-32
2022/02/28 11:25:31;;;;;;;5.40;3.75;;;9.50;98.30;;;;;;5034289;28;20016;-33
2022/02/28 11:27:58;;;;;;;7.15;3.30;;;9.60;99.40;;;;;;5034055;28;20034;-34
2022/02/28 11:30:27;;;;;;;5.20;3.50;;;9.60;99.70;;;;;;5024942;28;20021;-33
2022/02/28 11:33:05;;;;;;;11.35;3.65;;;9.80;99.30;;;;;;5031047;28;20025;-33
2022/02/28 11:35:47;;;;;;;6.93;3.58;;;9.90;98.20;;;;;;5014573;28;20033;-32
2022/02/28 11:38:32;;;;;;;8.55;4.00;;;9.90;98.50;;;;;;5027050;28;20051;-37
2022/02/28 11:41:04;;;;;;;8.18;3.72;;;10.00;98.20;;;;;;5018308;28;20398;-33
2022/02/28 11:43:35;;;;;;;9.32;5.15;;;10.00;98.70;;;;;;5030598;28;20030;-34
2022/02/28 11:46:07;;;;;;;10.38;5.63;;;10.00;99.30;;;;;;5032011;28;20018;-34
2022/02/28 11:48:49;;;;;;;9.75;4.18;;;10.10;98.50;;;;;;5041658;28;20056;-31
2022/02/28 11:51:38;;;;;;;6.95;3.60;;;10.30;98.30;;;;;;5031825;28;20100;-37
2022/02/28 11:54:06;;;;;;;6.07;3.65;;;10.20;98.50;;;;;;5031374;28;20034;-31
2022/02/28 11:56:34;;;;;;;8.15;4.05;;;10.20;98.10;;;;;;5020526;28;20022;-35
2022/02/28 11:59:23;;;;;;;20.63;4.13;;;10.10;99.20;;;;;;5025076;28;20050;-39
2022/02/28 12:01:53;;;;;;;8.27;4.03;;;10.20;99.40;;;;;;5027014;28;20049;-34
2022/02/28 12:04:41;;;;;;;7.70;4.20;;;10.30;98.90;;;;;;5023142;28;20456;-37
2022/02/28 12:07:23;;;;;;;7.20;4.15;;;10.40;99.60;;;;;;5012082;28;20520;-43
2022/02/28 12:09:50;;;;;;;7.80;4.55;;;10.50;98.70;;;;;;5023362;28;20034;-37
2022/02/28 12:12:33;;;;;;;6.15;3.53;;;10.40;98.80;;;;;;5028662;28;20037;-38
2022/02/28 12:15:03;;;;;;;9.77;3.75;;;10.50;99.20;;;;;;5020298;28;20030;-31
2022/02/28 12:17:48;;;;;;;6.57;4.03;;;10.60;98.70;;;;;;5029156;28;20030;-44
2022/02/28 12:20:16;;;;;;;7.35;4.57;;;10.60;98.50;;;;;;5024276;28;20387;-33
2022/02/28 12:23:08;;;;;;;5.22;3.75;;;10.60;98.60;;;;;;5028050;28;20029;-33
2022/02/28 12:25:35;;;;;;;7.95;4.57;;;10.70;99.10;;;;;;5024753;28;20116;-33
2022/02/28 12:28:14;;;;;;;6.22;4.50;;;10.80;98.70;;;;;;5025766;28;20471;-32
2022/02/28 12:30:43;;;;;;;8.18;3.80;;;10.80;98.60;;;;;;5024200;28;20486;-32
2022/02/28 12:33:11;;;;;;;5.00;3.63;;;10.80;98.20;;;;;;5023605;28;20052;-31
2022/02/28 12:35:53;;;;;;;8.43;4.35;;;10.70;98.40;;;;;;5027771;28;20021;-33
2022/02/28 12:38:19;;;;;;;9.05;4.68;;;10.70;98.30;;;;;;5032032;28;20029;-34
2022/02/28 12:40:51;;;;;;;7.45;4.35;;;10.70;98.40;;;;;;5020753;28;20024;-35
2022/02/28 12:43:21;;;;;;;5.70;3.92;;;10.70;98.10;;;;;;5021364;28;20469;-40
2022/02/28 12:45:49;;;;;;;8.27;4.85;;;10.80;98.40;;;;;;5030933;28;20017;-47
2022/02/28 12:48:19;;;;;;;8.85;3.83;;;10.90;97.50;;;;;;5015002;28;20033;-33
2022/02/28 12:50:46;;;;;;;5.95;3.50;;;10.80;98.20;;;;;;5032147;28;20025;-37
2022/02/28 12:53:14;;;;;;;6.22;4.47;;;10.80;98.00;;;;;;5031873;28;20075;-33
2022/02/28 12:55:48;;;;;;;8.50;3.67;;;10.90;97.50;;;;;;5031002;28;20036;-34
2022/02/28 12:58:20;;;;;;;10.70;3.85;;;10.90;96.70;;;;;;5026541;28;20041;-31